Time;durP1;ratioP1;P1;durP2;ratioP2;P2;SDS_P1;SDS_P2;PMS_P1;PMS_P2;Temp;Humidity;BMP_temperature;BMP_pressure;BME280_temperature;BME280_humidity;BME280_pressure;Samples;Min_cycle;Max_cycle;Signal;HPM_P1;HPM_P2
2022/07/07 00:00:29;;;;;;;7.10;3.00;;;16.40;99.90;;;;;;4969176;28;20038;-88
2022/07/07 00:02:54;;;;;;;7.75;2.70;;;16.40;99.90;;;;;;4970408;28;20117;-87
2022/07/07 00:05:20;;;;;;;8.65;2.80;;;;;;;;;;4970256;28;20494;-87
2022/07/07 00:07:47;;;;;;;9.65;2.90;;;;;;;;;;4971131;28;20487;-87
2022/07/07 00:10:13;;;;;;;6.35;2.80;;;;;;;;;;4971094;28;20073;-89
2022/07/07 00:12:39;;;;;;;12.45;3.03;;;;;;;;;;4970552;28;20026;-91
2022/07/07 00:15:06;;;;;;;8.40;3.05;;;16.30;99.90;;;;;;4989067;28;20383;-87
2022/07/07 00:17:32;;;;;;;9.95;2.97;;;;;;;;;;4989287;28;20027;-87
2022/07/07 00:19:57;;;;;;;11.52;3.05;;;16.30;99.90;;;;;;4989642;28;20566;-91
2022/07/07 00:22:23;;;;;;;8.43;2.70;;;16.30;99.90;;;;;;4989248;28;20027;-88
2022/07/07 00:24:49;;;;;;;8.00;2.58;;;16.20;99.90;;;;;;4988998;28;20538;-87
2022/07/07 00:27:15;;;;;;;11.50;3.03;;;;;;;;;;4990119;28;20025;-87
2022/07/07 00:29:43;;;;;;;11.00;3.10;;;;;;;;;;4989072;28;20038;-93
2022/07/07 00:32:10;;;;;;;7.45;3.20;;;;;;;;;;4989606;28;20448;-88
2022/07/07 00:34:36;;;;;;;11.30;2.92;;;;;;;;;;4974271;28;20471;-88
2022/07/07 00:37:02;;;;;;;11.40;2.90;;;16.20;99.90;;;;;;4974284;28;20023;-94
2022/07/07 00:39:27;;;;;;;8.68;2.60;;;16.10;99.90;;;;;;4974479;28;20053;-94
2022/07/07 00:41:53;;;;;;;8.38;2.70;;;16.10;99.90;;;;;;4989504;28;20019;-87
2022/07/07 00:44:20;;;;;;;8.35;2.67;;;;;;;;;;4975199;28;20034;-94
2022/07/07 00:46:47;;;;;;;7.35;2.78;;;16.00;99.90;;;;;;4975242;28;20050;-87
2022/07/07 00:49:14;;;;;;;5.60;2.33;;;;;;;;;;4974506;28;20494;-93
2022/07/07 00:51:41;;;;;;;9.38;2.80;;;16.10;99.90;;;;;;4974001;28;20260;-88
2022/07/07 00:54:08;;;;;;;10.15;2.50;;;16.10;99.90;;;;;;4973592;28;20494;-87
2022/07/07 00:56:34;;;;;;;4.82;2.50;;;16.00;99.90;;;;;;4988718;28;20376;-92
2022/07/07 00:59:06;;;;;;;12.23;2.42;;;16.10;99.90;;;;;;4973955;28;20029;-93
2022/07/07 01:01:34;;;;;;;6.70;2.67;;;16.00;99.90;;;;;;4973761;28;20042;-87
2022/07/07 01:04:01;;;;;;;6.05;2.22;;;16.10;99.90;;;;;;4973500;28;20479;-88
2022/07/07 01:06:27;;;;;;;10.98;2.53;;;;;;;;;;4973635;28;20106;-94
2022/07/07 01:08:53;;;;;;;9.93;2.50;;;16.00;99.90;;;;;;4988840;28;20486;-88
2022/07/07 01:11:19;;;;;;;7.82;2.30;;;16.00;99.90;;;;;;4974706;28;20023;-93
2022/07/07 01:13:45;;;;;;;6.90;2.20;;;;;;;;;;4973832;28;20364;-88
2022/07/07 01:16:10;;;;;;;5.78;2.25;;;15.90;99.90;;;;;;4973842;28;20055;-88
2022/07/07 01:18:36;;;;;;;5.35;2.03;;;15.90;99.90;;;;;;4972734;28;20065;-88
2022/07/07 01:21:05;;;;;;;5.30;2.03;;;15.90;99.90;;;;;;4973542;28;20034;-94
2022/07/07 01:23:31;;;;;;;8.82;2.70;;;;;;;;;;4973062;28;20399;-88
2022/07/07 01:25:57;;;;;;;8.02;2.72;;;;;;;;;;4971711;28;20058;-89
2022/07/07 01:28:23;;;;;;;9.93;2.50;;;;;;;;;;4973273;28;20105;-90
2022/07/07 01:30:49;;;;;;;10.52;2.33;;;;;;;;;;4974060;28;20058;-95
2022/07/07 01:33:16;;;;;;;10.82;2.25;;;15.90;99.90;;;;;;4973077;28;20023;-87
2022/07/07 01:35:42;;;;;;;7.55;2.10;;;;;;;;;;4973043;28;20414;-92
2022/07/07 01:38:07;;;;;;;7.75;2.30;;;15.90;99.90;;;;;;4973057;28;20027;-87
2022/07/07 01:40:33;;;;;;;8.98;2.10;;;15.90;99.90;;;;;;4987811;28;20514;-87
2022/07/07 01:42:59;;;;;;;9.55;2.20;;;;;;;;;;4972656;28;20488;-90
2022/07/07 01:45:25;;;;;;;10.30;2.47;;;15.80;99.90;;;;;;4972964;28;20077;-87
2022/07/07 01:47:51;;;;;;;6.10;2.22;;;;;;;;;;4973804;28;20475;-88
2022/07/07 01:50:16;;;;;;;11.13;2.40;;;15.90;99.90;;;;;;4987810;28;20499;-87
2022/07/07 01:52:42;;;;;;;5.93;2.00;;;16.20;99.90;;;;;;4972642;28;20442;-87
2022/07/07 01:55:09;;;;;;;6.78;2.28;;;15.80;99.90;;;;;;4972558;28;20027;-87
2022/07/07 01:57:35;;;;;;;10.70;2.40;;;;;;;;;;4987770;28;20027;-88
2022/07/07 02:00:01;;;;;;;8.18;2.20;;;;;;;;;;4972543;28;20031;-93
2022/07/07 02:02:27;;;;;;;7.10;2.00;;;;;;;;;;4972601;28;20093;-94
2022/07/07 02:04:52;;;;;;;8.73;2.45;;;15.70;99.90;;;;;;4973883;28;20419;-94
2022/07/07 02:07:18;;;;;;;7.93;2.58;;;15.70;99.90;;;;;;4987855;28;20074;-94
2022/07/07 02:09:44;;;;;;;8.75;2.30;;;16.20;99.90;;;;;;4972753;28;20292;-87
2022/07/07 02:12:10;;;;;;;9.57;2.10;;;;;;;;;;4972878;28;20394;-93
2022/07/07 02:14:37;;;;;;;5.90;2.28;;;;;;;;;;4972775;28;20038;-87
2022/07/07 02:17:03;;;;;;;4.95;2.03;;;;;;;;;;4972207;28;20031;-88
2022/07/07 02:19:29;;;;;;;9.18;2.08;;;;;;;;;;4972577;28;20476;-87
2022/07/07 02:21:55;;;;;;;8.30;2.08;;;;;;;;;;4992616;28;20121;-87
2022/07/07 02:24:22;;;;;;;9.75;2.50;;;;;;;;;;4979996;28;20081;-86
2022/07/07 02:26:47;;;;;;;6.65;2.10;;;15.50;99.90;;;;;;4995297;28;20045;-87
2022/07/07 02:29:13;;;;;;;5.15;1.90;;;15.50;99.90;;;;;;4974629;28;20031;-87
2022/07/07 02:31:39;;;;;;;6.75;2.35;;;15.50;99.90;;;;;;4972133;28;20027;-86
2022/07/07 02:34:05;;;;;;;11.48;2.83;;;;;;;;;;4971900;28;20038;-87
2022/07/07 02:36:31;;;;;;;7.70;2.25;;;15.50;99.90;;;;;;4986486;28;20070;-94
2022/07/07 02:38:56;;;;;;;8.98;2.20;;;15.50;99.90;;;;;;4971830;28;20054;-86
2022/07/07 02:41:22;;;;;;;8.48;2.03;;;15.40;99.90;;;;;;4972412;28;20034;-86
2022/07/07 02:43:48;;;;;;;10.55;2.95;;;;;;;;;;4986325;28;20462;-86
2022/07/07 02:46:14;;;;;;;7.47;2.45;;;;;;;;;;4971320;28;20071;-87
2022/07/07 02:48:40;;;;;;;7.57;2.33;;;15.40;99.90;;;;;;4971364;28;20561;-87
2022/07/07 02:51:06;;;;;;;7.45;2.30;;;15.40;99.90;;;;;;4971736;28;20031;-86
2022/07/07 02:53:34;;;;;;;10.65;2.55;;;;;;;;;;4986670;28;20031;-88
2022/07/07 02:56:00;;;;;;;8.05;2.28;;;15.40;99.90;;;;;;4971356;28;20475;-87
2022/07/07 02:58:26;;;;;;;7.63;2.53;;;15.40;99.90;;;;;;4972056;28;20065;-87
2022/07/07 03:00:54;;;;;;;7.97;2.95;;;;;;;;;;4971111;28;20034;-90
2022/07/07 03:03:20;;;;;;;;;;;15.30;99.90;;;;;;4986544;28;20065;-86
2022/07/07 03:05:46;;;;;;;14.07;2.33;;;15.30;99.90;;;;;;4971408;28;19906;-87
2022/07/07 03:08:11;;;;;;;10.55;2.35;;;15.20;99.90;;;;;;4986241;28;20031;-87
2022/07/07 03:10:37;;;;;;;8.95;2.42;;;15.20;99.90;;;;;;4971215;28;20041;-95
2022/07/07 03:13:03;;;;;;;12.05;3.00;;;15.30;99.90;;;;;;4971049;28;20023;-86
2022/07/07 03:15:28;;;;;;;10.93;2.85;;;15.20;99.90;;;;;;4985981;28;20027;-85
2022/07/07 03:17:55;;;;;;;9.90;2.25;;;15.20;99.90;;;;;;4971816;28;20089;-85
2022/07/07 03:20:21;;;;;;;6.53;2.30;;;15.20;99.90;;;;;;4970890;28;20368;-85
2022/07/07 03:22:47;;;;;;;10.52;2.58;;;;;;;;;;4971099;28;20093;-85
2022/07/07 03:25:14;;;;;;;12.15;2.45;;;15.20;99.90;;;;;;4971083;28;20118;-92
2022/07/07 03:27:40;;;;;;;6.35;2.65;;;15.20;99.90;;;;;;4970961;28;20034;-85
2022/07/07 03:30:08;;;;;;;8.60;2.63;;;15.20;99.90;;;;;;4970646;28;20022;-85
2022/07/07 03:32:34;;;;;;;8.48;2.35;;;15.20;99.90;;;;;;4971057;28;20102;-91
2022/07/07 03:35:00;;;;;;;6.50;2.15;;;;;;;;;;4969458;28;20546;-85
2022/07/07 03:37:26;;;;;;;6.20;2.20;;;;;;;;;;4987456;28;20372;-85
2022/07/07 03:39:52;;;;;;;7.25;2.30;;;15.20;99.90;;;;;;4985669;28;20038;-85
2022/07/07 03:42:18;;;;;;;17.38;2.75;;;15.20;99.90;;;;;;4970366;28;20627;-84
2022/07/07 03:44:44;;;;;;;9.25;2.42;;;15.10;99.90;;;;;;4970369;28;20030;-85
2022/07/07 03:47:11;;;;;;;6.50;2.30;;;;;;;;;;4970509;28;20054;-83
2022/07/07 03:49:38;;;;;;;9.25;2.50;;;15.10;99.90;;;;;;4969847;28;20027;-84
2022/07/07 03:52:04;;;;;;;6.63;2.08;;;15.00;99.90;;;;;;4970344;28;20029;-89
2022/07/07 03:54:30;;;;;;;5.68;2.20;;;15.00;99.90;;;;;;4970744;28;20376;-90
2022/07/07 03:56:55;;;;;;;8.45;2.58;;;14.90;99.90;;;;;;4986308;28;20029;-83
2022/07/07 03:59:21;;;;;;;14.30;2.50;;;14.90;99.90;;;;;;4970290;28;20490;-84
2022/07/07 04:01:46;;;;;;;6.18;2.45;;;14.90;99.90;;;;;;4970066;28;20035;-83
2022/07/07 04:04:13;;;;;;;8.57;2.95;;;14.90;99.90;;;;;;4970080;28;20048;-84
2022/07/07 04:06:38;;;;;;;6.22;2.45;;;14.80;99.90;;;;;;4970206;28;20503;-84
2022/07/07 04:09:04;;;;;;;8.13;2.60;;;14.90;99.90;;;;;;4970135;28;20027;-84
2022/07/07 04:11:30;;;;;;;6.32;2.40;;;;;;;;;;4970793;28;20023;-84
2022/07/07 04:13:56;;;;;;;10.45;2.80;;;14.90;99.90;;;;;;4985652;28;20084;-84
2022/07/07 04:16:22;;;;;;;8.00;2.70;;;14.90;99.90;;;;;;4969661;28;20030;-85
2022/07/07 04:18:47;;;;;;;7.85;2.08;;;15.00;99.90;;;;;;4974748;28;20488;-88
2022/07/07 04:21:13;;;;;;;7.30;2.47;;;15.00;99.90;;;;;;4971965;28;20537;-85
2022/07/07 04:23:39;;;;;;;8.52;2.65;;;15.00;99.90;;;;;;4985253;28;20110;-86
2022/07/07 04:26:05;;;;;;;11.18;2.70;;;15.00;99.90;;;;;;4995684;28;20035;-84
2022/07/07 04:28:30;;;;;;;7.88;2.92;;;15.00;99.90;;;;;;4997281;28;20034;-84
2022/07/07 04:30:56;;;;;;;8.82;2.65;;;15.00;99.90;;;;;;4998345;28;20017;-83
2022/07/07 04:33:22;;;;;;;11.25;2.90;;;15.00;99.90;;;;;;4995644;28;20027;-91
2022/07/07 04:35:48;;;;;;;8.10;2.70;;;15.10;99.90;;;;;;4997288;28;20062;-85
2022/07/07 04:38:13;;;;;;;8.65;2.72;;;15.00;99.90;;;;;;4995020;28;20449;-86
2022/07/07 04:40:40;;;;;;;12.00;3.25;;;15.00;99.90;;;;;;5015401;28;20022;-90
2022/07/07 04:43:06;;;;;;;10.75;2.78;;;15.00;99.90;;;;;;4999712;28;20030;-87
2022/07/07 04:45:31;;;;;;;10.00;3.15;;;15.10;99.90;;;;;;4999809;28;20026;-86
2022/07/07 04:47:57;;;;;;;11.98;2.95;;;15.00;99.90;;;;;;5009496;28;20026;-85
2022/07/07 04:50:23;;;;;;;10.50;2.95;;;15.00;99.90;;;;;;5000969;28;20109;-88
2022/07/07 04:52:48;;;;;;;9.95;3.20;;;15.10;99.90;;;;;;4990543;28;20084;-85
2022/07/07 04:55:14;;;;;;;9.77;2.72;;;;;;;;;;5008288;28;20401;-86
2022/07/07 04:57:40;;;;;;;11.02;2.92;;;15.10;99.90;;;;;;5009140;28;20030;-88
2022/07/07 05:00:06;;;;;;;8.32;2.65;;;15.00;99.90;;;;;;5012343;28;20080;-84
2022/07/07 05:02:32;;;;;;;6.65;2.30;;;15.10;99.90;;;;;;5020569;28;20470;-84
2022/07/07 05:04:58;;;;;;;10.02;3.08;;;15.10;99.90;;;;;;5019129;28;20029;-86
2022/07/07 05:07:23;;;;;;;11.48;2.97;;;15.20;99.90;;;;;;5016728;28;20438;-85
2022/07/07 05:09:49;;;;;;;10.60;3.15;;;15.30;99.90;;;;;;5016335;28;20021;-93
2022/07/07 05:12:15;;;;;;;12.38;2.67;;;;;;;;;;4991171;23;20059;-94
2022/07/07 05:14:43;;;;;;;11.35;3.63;;;;;;;;;;4984531;28;20086;-85
2022/07/07 05:17:09;;;;;;;11.93;2.92;;;15.40;99.90;;;;;;4975026;28;20467;-94
2022/07/07 05:19:35;;;;;;;15.05;2.95;;;;;;;;;;4974768;28;20090;-85
2022/07/07 05:22:01;;;;;;;9.23;4.00;;;;;;;;;;4973692;28;20110;-85
2022/07/07 05:24:27;;;;;;;10.43;3.05;;;15.50;99.90;;;;;;4972689;28;20066;-84
2022/07/07 05:26:52;;;;;;;11.63;3.22;;;15.50;99.90;;;;;;4979305;28;20522;-85
2022/07/07 05:29:18;;;;;;;17.60;3.00;;;15.60;99.90;;;;;;4981187;28;20027;-85
2022/07/07 05:31:44;;;;;;;9.80;3.25;;;15.60;99.90;;;;;;4981692;28;20034;-86
2022/07/07 05:34:09;;;;;;;12.27;2.90;;;15.70;99.90;;;;;;4982850;28;20027;-85
2022/07/07 05:36:35;;;;;;;12.60;4.22;;;15.60;99.90;;;;;;4987352;28;20042;-88
2022/07/07 05:39:01;;;;;;;10.18;3.03;;;15.80;99.90;;;;;;4991821;28;20027;-95
2022/07/07 05:41:27;;;;;;;10.50;2.85;;;15.70;99.90;;;;;;4987303;28;20050;-86
2022/07/07 05:43:53;;;;;;;9.82;3.17;;;17.50;99.90;;;;;;4991933;28;20326;-93
2022/07/07 05:46:19;;;;;;;14.00;3.05;;;15.80;99.90;;;;;;4986170;28;20023;-85
2022/07/07 05:48:44;;;;;;;10.82;3.03;;;15.50;99.90;;;;;;4997617;28;20075;-85
2022/07/07 05:51:10;;;;;;;8.70;2.78;;;15.90;99.90;;;;;;4975498;28;20440;-85
2022/07/07 05:53:36;;;;;;;13.43;3.20;;;16.00;99.90;;;;;;4975508;28;20035;-85
2022/07/07 05:56:03;;;;;;;8.73;3.10;;;16.10;99.90;;;;;;4975133;28;20443;-92
2022/07/07 05:58:29;;;;;;;12.35;2.92;;;;;;;;;;4972517;28;20037;-85
2022/07/07 06:00:56;;;;;;;12.20;3.42;;;16.20;99.90;;;;;;4975712;28;20027;-86
2022/07/07 06:03:22;;;;;;;10.23;3.33;;;16.20;99.90;;;;;;4982206;28;20067;-86
2022/07/07 06:05:48;;;;;;;16.02;3.35;;;16.10;99.90;;;;;;4981799;28;20031;-85
2022/07/07 06:08:14;;;;;;;7.90;2.75;;;;;;;;;;4983712;28;20042;-85
2022/07/07 06:10:40;;;;;;;19.73;3.47;;;16.40;99.90;;;;;;4980963;28;20043;-94
2022/07/07 06:13:06;;;;;;;10.52;3.33;;;16.40;99.90;;;;;;4982914;28;20031;-85
2022/07/07 06:15:33;;;;;;;13.93;3.25;;;16.50;99.90;;;;;;4985350;28;20057;-87
2022/07/07 06:18:03;;;;;;;12.02;3.22;;;16.60;99.90;;;;;;4984540;28;20050;-86
2022/07/07 06:20:29;;;;;;;13.45;3.00;;;16.10;99.90;;;;;;4987064;28;20027;-87
2022/07/07 06:22:56;;;;;;;13.77;3.80;;;16.70;99.90;;;;;;4986481;28;20054;-88
2022/07/07 06:25:22;;;;;;;11.02;3.08;;;16.80;99.90;;;;;;4985683;28;20037;-95
2022/07/07 06:27:48;;;;;;;17.50;4.10;;;16.90;99.90;;;;;;4986143;28;20019;-86
2022/07/07 06:30:14;;;;;;;13.45;3.22;;;;;;;;;;4981038;28;20078;-94
2022/07/07 06:32:39;;;;;;;9.32;3.30;;;17.10;99.90;;;;;;4982884;28;20027;-85
2022/07/07 06:35:06;;;;;;;10.35;3.30;;;17.30;99.90;;;;;;5001718;28;20081;-93
2022/07/07 06:37:53;;;;;;;12.23;3.25;;;17.30;99.90;;;;;;4990513;28;20031;-88
2022/07/07 06:40:19;;;;;;;18.85;4.20;;;17.40;99.90;;;;;;4989977;28;20022;-86
2022/07/07 06:42:45;;;;;;;12.48;3.42;;;17.40;99.90;;;;;;4986434;28;20014;-87
2022/07/07 06:45:11;;;;;;;15.38;4.18;;;17.50;99.90;;;;;;4987105;28;20566;-95
2022/07/07 06:47:36;;;;;;;14.38;3.72;;;18.50;99.90;;;;;;4988129;28;20105;-85
2022/07/07 06:50:03;;;;;;;15.98;3.75;;;;;;;;;;4984747;28;20038;-94
2022/07/07 06:52:28;;;;;;;16.67;3.45;;;17.80;99.90;;;;;;4983898;28;20023;-85
2022/07/07 06:54:54;;;;;;;16.25;3.60;;;17.80;99.90;;;;;;4981466;28;20041;-94
2022/07/07 06:57:20;;;;;;;9.55;3.50;;;17.90;99.90;;;;;;4983971;28;20019;-85
2022/07/07 06:59:45;;;;;;;14.30;3.33;;;17.90;99.90;;;;;;4985262;28;20042;-90
2022/07/07 07:02:11;;;;;;;16.88;3.50;;;18.00;99.90;;;;;;4977136;28;20034;-85
2022/07/07 07:04:38;;;;;;;14.23;3.38;;;18.00;99.90;;;;;;4970485;28;20507;-86
2022/07/07 07:07:04;;;;;;;10.75;3.20;;;18.10;99.90;;;;;;4975557;28;20023;-85
2022/07/07 07:09:30;;;;;;;12.93;3.63;;;18.20;99.90;;;;;;4974985;28;20038;-84
2022/07/07 07:11:56;;;;;;;9.40;3.60;;;18.10;99.90;;;;;;4985945;28;20086;-92
2022/07/07 07:14:22;;;;;;;9.93;3.15;;;18.10;99.90;;;;;;4983724;28;20038;-88
2022/07/07 07:16:48;;;;;;;8.20;3.10;;;18.20;99.90;;;;;;4981973;28;20027;-85
2022/07/07 07:19:14;;;;;;;11.85;3.17;;;;;;;;;;4982825;28;20038;-87
2022/07/07 07:21:43;;;;;;;12.68;3.28;;;18.20;99.90;;;;;;4983842;28;20011;-85
2022/07/07 07:24:09;;;;;;;11.07;3.60;;;18.30;99.90;;;;;;4997668;28;20039;-88
2022/07/07 07:26:34;;;;;;;15.98;3.60;;;18.30;99.90;;;;;;4998113;23;20046;-87
2022/07/07 07:29:00;;;;;;;13.98;3.17;;;18.20;99.90;;;;;;5003814;28;20027;-93
2022/07/07 07:31:26;;;;;;;10.77;3.05;;;18.20;99.90;;;;;;4989153;28;20026;-94
2022/07/07 07:33:52;;;;;;;8.07;3.35;;;18.30;99.90;;;;;;4988936;28;20018;-85
2022/07/07 07:36:17;;;;;;;10.60;3.17;;;18.40;99.90;;;;;;4990555;28;20050;-88
2022/07/07 07:38:44;;;;;;;10.18;3.20;;;18.40;99.90;;;;;;4985790;28;20015;-91
2022/07/07 07:41:11;;;;;;;14.82;3.50;;;18.50;99.90;;;;;;5006410;28;20039;-86
2022/07/07 07:43:39;;;;;;;15.63;5.03;;;18.40;99.90;;;;;;4987201;28;20108;-89
2022/07/07 07:46:05;;;;;;;11.13;3.20;;;18.40;99.90;;;;;;4987838;28;20058;-85
2022/07/07 07:48:30;;;;;;;7.22;3.05;;;18.50;99.90;;;;;;4984696;28;20282;-86
2022/07/07 07:50:57;;;;;;;15.05;3.42;;;18.40;99.90;;;;;;4986670;28;20027;-85
2022/07/07 07:53:23;;;;;;;8.27;2.90;;;;;;;;;;5004603;28;20034;-88
2022/07/07 07:55:50;;;;;;;8.52;2.92;;;18.50;99.90;;;;;;4988934;28;20035;-86
2022/07/07 07:58:16;;;;;;;9.52;3.20;;;18.60;99.90;;;;;;4999045;28;20027;-96
2022/07/07 08:00:41;;;;;;;7.93;2.75;;;18.70;99.90;;;;;;4981488;28;20051;-85
2022/07/07 08:03:07;;;;;;;10.93;3.00;;;18.90;99.90;;;;;;4988432;28;20041;-85
2022/07/07 08:05:33;;;;;;;10.63;3.10;;;19.00;99.90;;;;;;4984126;28;20027;-86
2022/07/07 08:07:58;;;;;;;8.05;2.88;;;19.10;99.90;;;;;;4988483;28;20045;-85
2022/07/07 08:10:24;;;;;;;9.82;2.60;;;19.00;99.90;;;;;;4984755;28;20011;-86
2022/07/07 08:12:50;;;;;;;7.05;2.78;;;19.10;99.90;;;;;;5004559;28;20034;-86
2022/07/07 08:15:17;;;;;;;8.02;2.88;;;19.00;99.90;;;;;;5006224;28;20034;-89
2022/07/07 08:17:42;;;;;;;13.82;2.92;;;18.90;99.90;;;;;;4986597;28;20019;-86
2022/07/07 08:20:09;;;;;;;6.85;3.22;;;19.00;99.90;;;;;;4990196;28;20042;-86
2022/07/07 08:22:34;;;;;;;9.30;2.95;;;18.90;99.90;;;;;;4986898;28;20038;-85
2022/07/07 08:25:00;;;;;;;12.30;3.20;;;18.70;99.90;;;;;;4989426;28;20039;-85
2022/07/07 08:27:26;;;;;;;7.85;3.03;;;18.60;99.90;;;;;;4973420;28;20037;-85
2022/07/07 08:29:52;;;;;;;10.23;2.90;;;18.60;99.90;;;;;;4974654;28;20003;-85
2022/07/07 08:32:18;;;;;;;9.75;2.90;;;18.70;99.90;;;;;;4983333;28;20041;-86
2022/07/07 08:34:44;;;;;;;10.00;2.80;;;18.90;99.90;;;;;;4986911;28;20034;-85
2022/07/07 08:37:12;;;;;;;8.10;3.05;;;18.70;99.90;;;;;;4988379;28;20042;-86
2022/07/07 08:39:38;;;;;;;12.45;3.38;;;18.90;99.90;;;;;;4986058;28;20067;-85
2022/07/07 08:42:04;;;;;;;13.50;3.03;;;18.80;99.90;;;;;;4989699;28;20040;-85
2022/07/07 08:44:33;;;;;;;6.57;2.53;;;18.80;99.90;;;;;;4991249;28;20043;-85
2022/07/07 08:47:03;;;;;;;10.77;2.97;;;18.80;99.90;;;;;;4989328;28;20042;-89
2022/07/07 08:49:29;;;;;;;6.28;2.60;;;18.90;99.90;;;;;;4993016;28;20030;-84
2022/07/07 08:51:56;;;;;;;9.85;2.85;;;18.80;99.90;;;;;;4993548;28;20023;-85
2022/07/07 08:54:24;;;;;;;7.45;2.55;;;18.90;99.90;;;;;;4989813;28;20015;-92
2022/07/07 08:56:49;;;;;;;11.37;2.50;;;18.90;99.90;;;;;;4993392;28;20031;-84
2022/07/07 08:59:15;;;;;;;5.78;2.10;;;19.10;99.90;;;;;;4996151;28;20290;-86
2022/07/07 09:01:59;;;;;;;7.13;2.65;;;19.10;99.90;;;;;;4986501;28;20070;-84
2022/07/07 09:04:29;;;;;;;7.93;2.58;;;19.30;99.90;;;;;;4982397;28;20031;-87
2022/07/07 09:06:57;;;;;;;8.88;2.55;;;19.50;99.90;;;;;;4976836;28;20039;-84
2022/07/07 09:09:37;;;;;;;8.82;2.53;;;19.50;99.90;;;;;;4983480;28;20026;-96
2022/07/07 09:12:13;;;;;;;7.22;2.00;;;19.50;99.90;;;;;;4985934;28;20027;-86
2022/07/07 09:14:45;;;;;;;8.02;2.30;;;19.40;99.90;;;;;;4967232;28;20519;-84
2022/07/07 09:17:31;;;;;;;7.38;2.30;;;19.30;99.90;;;;;;4981907;28;20027;-85
2022/07/07 09:20:08;;;;;;;5.78;2.10;;;19.30;99.90;;;;;;4979585;28;20081;-85
2022/07/07 09:22:56;;;;;;;5.10;2.20;;;19.40;99.90;;;;;;4980049;28;20023;-86
2022/07/07 09:25:26;;;;;;;10.10;2.60;;;19.40;99.90;;;;;;4971992;28;20074;-85
2022/07/07 09:28:08;;;;;;;7.55;2.50;;;19.40;99.90;;;;;;4981873;28;20030;-85
2022/07/07 09:30:37;;;;;;;7.68;2.10;;;19.70;99.90;;;;;;4993801;28;20842;-85
2022/07/07 09:33:07;;;;;;;4.95;2.00;;;19.60;99.90;;;;;;4982844;28;20074;-85
2022/07/07 09:38:23;;;;;;;5.82;2.22;;;;;;;;;;4976271;28;20026;-85
2022/07/07 09:40:51;;;;;;;5.18;2.00;;;20.00;99.90;;;;;;4970531;28;20056;-85
2022/07/07 09:43:18;;;;;;;15.25;2.50;;;20.10;99.90;;;;;;4990436;28;20042;-85
2022/07/07 09:46:06;;;;;;;7.13;2.55;;;20.00;99.90;;;;;;4994205;28;20025;-85
2022/07/07 09:48:33;;;;;;;8.05;2.20;;;20.00;99.90;;;;;;4986818;28;20479;-88
2022/07/07 09:51:21;;;;;;;5.40;2.20;;;20.30;99.90;;;;;;4992128;28;20046;-87
2022/07/07 09:54:06;;;;;;;7.65;2.20;;;20.00;99.90;;;;;;4980798;28;20086;-86
2022/07/07 09:56:38;;;;;;;6.70;2.22;;;20.10;99.90;;;;;;4988900;28;20049;-85
2022/07/07 09:59:08;;;;;;;3.85;1.92;;;20.10;99.90;;;;;;4971309;28;20062;-85
2022/07/07 10:01:39;;;;;;;5.75;2.05;;;20.10;99.90;;;;;;4976619;28;20031;-94
2022/07/07 10:04:19;;;;;;;8.00;2.33;;;19.70;99.90;;;;;;4979044;28;20034;-86
2022/07/07 10:06:45;;;;;;;8.52;2.67;;;19.70;99.90;;;;;;4978608;28;20479;-89
2022/07/07 10:09:20;;;;;;;6.30;2.58;;;19.80;99.90;;;;;;4951085;28;20026;-91
2022/07/07 10:11:55;;;;;;;7.00;2.35;;;19.90;99.90;;;;;;4971990;28;20487;-84
2022/07/07 10:14:23;;;;;;;5.60;2.20;;;19.80;99.90;;;;;;4971227;28;20495;-90
2022/07/07 10:16:53;;;;;;;3.63;1.95;;;19.90;99.90;;;;;;4974734;28;20019;-86
2022/07/07 10:19:21;;;;;;;7.28;2.17;;;20.10;99.90;;;;;;4979120;28;20023;-85
2022/07/07 10:21:50;;;;;;;4.72;1.95;;;20.10;99.90;;;;;;4977503;28;20111;-84
2022/07/07 10:24:18;;;;;;;4.38;2.17;;;20.40;99.90;;;;;;4980708;28;20041;-94
2022/07/07 10:27:14;;;;;;;8.23;2.65;;;20.30;99.90;;;;;;4971611;28;20062;-84
2022/07/07 10:29:49;;;;;;;6.72;2.40;;;20.60;99.90;;;;;;4973761;28;20138;-84
2022/07/07 10:32:33;;;;;;;5.03;2.08;;;20.50;99.90;;;;;;4983627;28;20030;-82
2022/07/07 10:35:10;;;;;;;7.30;2.42;;;20.60;99.90;;;;;;4983348;28;20522;-92
2022/07/07 10:37:46;;;;;;;6.47;2.40;;;20.80;99.90;;;;;;4984176;28;20026;-85
2022/07/07 10:40:18;;;;;;;7.32;2.20;;;20.90;99.90;;;;;;4976363;28;20031;-92
2022/07/07 10:43:10;;;;;;;6.68;2.20;;;21.20;99.90;;;;;;4974646;28;20157;-83
2022/07/07 10:45:44;;;;;;;6.88;2.20;;;21.00;99.90;;;;;;4969666;28;20039;-83
2022/07/07 10:48:39;;;;;;;5.90;1.90;;;20.70;99.90;;;;;;4968040;28;20130;-93
2022/07/07 10:51:50;;;;;;;4.10;2.05;;;20.60;99.90;;;;;;4973551;28;20483;-94
2022/07/07 10:54:16;;;;;;;5.60;2.08;;;20.60;99.90;;;;;;4967521;28;20045;-91
2022/07/07 10:56:51;;;;;;;9.20;2.35;;;20.70;99.90;;;;;;4986554;28;20023;-83
2022/07/07 10:59:18;;;;;;;6.60;2.20;;;20.80;99.90;;;;;;4973293;28;20129;-82
2022/07/07 11:02:02;;;;;;;4.95;1.80;;;21.00;99.90;;;;;;4970141;28;20027;-82
2022/07/07 11:04:43;;;;;;;6.15;2.10;;;21.10;99.90;;;;;;4966394;28;20053;-82
2022/07/07 11:07:16;;;;;;;5.38;1.90;;;21.20;99.90;;;;;;4971484;28;20026;-84
2022/07/07 11:10:06;;;;;;;8.13;1.95;;;21.40;99.90;;;;;;4974681;28;20019;-91
2022/07/07 11:12:48;;;;;;;5.43;1.77;;;21.60;99.90;;;;;;4976993;28;20045;-89
2022/07/07 11:15:30;;;;;;;3.72;1.80;;;21.60;99.90;;;;;;4961309;28;20023;-86
2022/07/07 11:17:56;;;;;;;3.42;1.52;;;21.30;99.90;;;;;;4968669;28;20034;-90
2022/07/07 11:20:27;;;;;;;4.82;1.90;;;21.40;99.90;;;;;;4970934;28;20034;-92
2022/07/07 11:23:07;;;;;;;2.42;1.48;;;21.50;99.90;;;;;;4970423;28;20023;-83
2022/07/07 11:25:33;;;;;;;2.28;1.33;;;21.60;99.90;;;;;;4971077;28;20039;-92
2022/07/07 11:27:59;;;;;;;6.43;1.90;;;21.60;99.90;;;;;;4970499;28;20023;-83
2022/07/07 11:30:25;;;;;;;7.03;1.60;;;21.70;99.90;;;;;;4970469;28;20094;-90
2022/07/07 11:32:55;;;;;;;5.28;1.98;;;21.90;99.90;;;;;;4971634;28;20019;-93
2022/07/07 11:35:21;;;;;;;4.05;1.90;;;21.80;99.90;;;;;;4968532;28;20034;-89
2022/07/07 11:37:47;;;;;;;5.97;2.25;;;21.90;99.90;;;;;;4969394;28;20106;-93
2022/07/07 11:40:13;;;;;;;8.05;2.20;;;21.80;99.90;;;;;;4972824;28;20113;-92
2022/07/07 11:42:42;;;;;;;8.30;2.20;;;21.90;99.90;;;;;;4986534;28;20109;-83
2022/07/07 11:45:28;;;;;;;5.13;1.90;;;21.80;99.90;;;;;;4970936;28;20041;-87
2022/07/07 11:47:57;;;;;;;6.30;2.10;;;22.10;99.90;;;;;;4976475;28;20030;-95
2022/07/07 11:50:24;;;;;;;7.60;2.20;;;22.10;99.90;;;;;;4970800;28;20377;-84
2022/07/07 11:52:54;;;;;;;6.43;2.00;;;22.00;99.90;;;;;;4968875;28;20487;-83
2022/07/07 11:55:20;;;;;;;5.38;1.75;;;22.10;99.90;;;;;;4969918;28;20015;-86
2022/07/07 11:57:55;;;;;;;8.52;2.05;;;22.30;99.90;;;;;;4980578;28;20084;-83
2022/07/07 12:00:25;;;;;;;4.32;1.67;;;22.30;99.90;;;;;;4989435;28;20018;-83
2022/07/07 12:02:53;;;;;;;6.22;1.60;;;22.20;99.90;;;;;;4970133;28;20157;-82
2022/07/07 12:05:20;;;;;;;6.80;1.77;;;;;;;;;;4970134;28;20380;-82
2022/07/07 12:08:13;;;;;;;9.07;1.90;;;22.00;99.90;;;;;;4968938;28;20031;-85
2022/07/07 12:10:49;;;;;;;3.42;1.70;;;21.70;99.90;;;;;;4968207;28;20050;-83
2022/07/07 12:13:15;;;;;;;4.95;1.48;;;22.00;99.90;;;;;;4985637;28;20427;-82
2022/07/07 12:15:47;;;;;;;4.78;2.08;;;22.20;99.90;;;;;;4970982;28;20030;-82
2022/07/07 12:18:20;;;;;;;3.60;1.63;;;22.30;99.90;;;;;;4970239;28;20383;-82
2022/07/07 12:20:58;;;;;;;7.97;1.90;;;22.40;99.90;;;;;;4967988;28;20459;-85
2022/07/07 12:23:24;;;;;;;6.38;1.77;;;22.20;99.90;;;;;;4966053;28;20031;-86
2022/07/07 12:25:50;;;;;;;6.63;1.63;;;22.40;99.90;;;;;;4968699;28;20023;-82
2022/07/07 12:28:16;;;;;;;5.45;2.20;;;22.50;99.90;;;;;;4983178;28;20030;-82
2022/07/07 12:30:56;;;;;;;5.13;1.63;;;22.60;99.90;;;;;;4966826;28;20046;-83
2022/07/07 12:33:32;;;;;;;2.95;1.55;;;22.50;99.90;;;;;;4964653;28;20399;-82
2022/07/07 12:36:09;;;;;;;3.97;1.60;;;22.50;99.90;;;;;;4968336;28;20027;-86
2022/07/07 12:38:40;;;;;;;8.05;1.90;;;22.40;99.90;;;;;;4969653;28;20136;-83
2022/07/07 12:41:06;;;;;;;6.18;1.60;;;22.30;99.90;;;;;;4969018;28;20034;-82
2022/07/07 12:43:36;;;;;;;4.05;1.58;;;22.20;99.90;;;;;;4967957;28;20450;-84
2022/07/07 12:46:10;;;;;;;3.42;1.60;;;22.30;99.90;;;;;;4968516;28;20369;-86
2022/07/07 12:48:44;;;;;;;5.07;1.90;;;22.40;99.90;;;;;;4965990;28;20129;-84
2022/07/07 12:51:10;;;;;;;5.82;1.55;;;22.60;99.90;;;;;;4969853;28;20054;-86
2022/07/07 12:53:37;;;;;;;6.28;1.50;;;22.90;99.90;;;;;;4966855;28;20051;-85
2022/07/07 12:56:07;;;;;;;4.60;1.50;;;22.90;99.90;;;;;;4967986;28;20026;-85
2022/07/07 12:58:41;;;;;;;3.88;1.77;;;22.50;99.90;;;;;;4966623;28;20420;-86
2022/07/07 13:01:06;;;;;;;7.22;1.90;;;22.50;99.90;;;;;;4969550;28;20117;-84
2022/07/07 13:03:32;;;;;;;3.67;1.70;;;22.60;99.90;;;;;;4971886;28;20066;-83
2022/07/07 13:06:00;;;;;;;3.45;1.77;;;22.60;99.90;;;;;;4983597;28;20580;-84
2022/07/07 13:08:26;;;;;;;1.90;1.42;;;22.40;99.90;;;;;;4971042;28;20026;-89